sensor_id;sensor_type;location;lat;lon;timestamp;P1;durP1;ratioP1;P2;durP2;ratioP2
41927;SDS011;27616;51.420;6.788;2022-12-18T00:01:24;21.17;;;9.60;;
41927;SDS011;27616;51.420;6.788;2022-12-18T00:03:52;24.53;;;10.07;;
41927;SDS011;27616;51.420;6.788;2022-12-18T00:06:19;22.07;;;10.03;;
41927;SDS011;27616;51.420;6.788;2022-12-18T00:08:46;21.87;;;9.83;;
41927;SDS011;27616;51.420;6.788;2022-12-18T00:11:13;22.13;;;9.93;;
41927;SDS011;27616;51.420;6.788;2022-12-18T00:13:40;24.63;;;10.63;;
41927;SDS011;27616;51.420;6.788;2022-12-18T00:16:07;26.60;;;11.00;;
41927;SDS011;27616;51.420;6.788;2022-12-18T00:18:37;23.60;;;9.90;;
41927;SDS011;27616;51.420;6.788;2022-12-18T00:21:05;21.17;;;9.37;;
41927;SDS011;27616;51.420;6.788;2022-12-18T00:23:32;22.07;;;9.90;;
41927;SDS011;27616;51.420;6.788;2022-12-18T00:26:03;21.53;;;9.80;;
41927;SDS011;27616;51.420;6.788;2022-12-18T00:28:31;22.60;;;9.20;;
41927;SDS011;27616;51.420;6.788;2022-12-18T00:31:03;22.87;;;9.20;;
41927;SDS011;27616;51.420;6.788;2022-12-18T00:33:31;21.87;;;8.90;;
41927;SDS011;27616;51.420;6.788;2022-12-18T00:36:00;24.17;;;9.63;;
41927;SDS011;27616;51.420;6.788;2022-12-18T00:38:31;20.87;;;9.40;;
41927;SDS011;27616;51.420;6.788;2022-12-18T00:40:57;24.33;;;9.37;;
41927;SDS011;27616;51.420;6.788;2022-12-18T00:43:23;19.43;;;8.57;;
41927;SDS011;27616;51.420;6.788;2022-12-18T00:45:48;22.43;;;9.10;;
41927;SDS011;27616;51.420;6.788;2022-12-18T00:48:14;23.57;;;9.07;;
41927;SDS011;27616;51.420;6.788;2022-12-18T00:50:40;21.10;;;9.03;;
41927;SDS011;27616;51.420;6.788;2022-12-18T00:53:06;16.87;;;7.93;;
41927;SDS011;27616;51.420;6.788;2022-12-18T00:55:34;20.23;;;9.10;;
41927;SDS011;27616;51.420;6.788;2022-12-18T00:58:02;21.83;;;8.73;;
41927;SDS011;27616;51.420;6.788;2022-12-18T01:00:27;18.67;;;8.47;;
41927;SDS011;27616;51.420;6.788;2022-12-18T01:02:53;21.87;;;8.97;;
41927;SDS011;27616;51.420;6.788;2022-12-18T01:05:19;22.33;;;9.37;;
41927;SDS011;27616;51.420;6.788;2022-12-18T01:07:44;20.37;;;8.00;;
41927;SDS011;27616;51.420;6.788;2022-12-18T01:10:11;19.10;;;8.50;;
41927;SDS011;27616;51.420;6.788;2022-12-18T01:12:37;19.87;;;8.87;;
41927;SDS011;27616;51.420;6.788;2022-12-18T01:15:04;19.77;;;8.00;;
41927;SDS011;27616;51.420;6.788;2022-12-18T01:17:31;20.83;;;8.57;;
41927;SDS011;27616;51.420;6.788;2022-12-18T01:19:58;19.60;;;7.73;;
41927;SDS011;27616;51.420;6.788;2022-12-18T01:22:25;16.97;;;7.20;;
41927;SDS011;27616;51.420;6.788;2022-12-18T01:24:50;15.40;;;6.83;;
41927;SDS011;27616;51.420;6.788;2022-12-18T01:27:16;17.37;;;7.17;;
41927;SDS011;27616;51.420;6.788;2022-12-18T01:29:42;16.87;;;7.20;;
41927;SDS011;27616;51.420;6.788;2022-12-18T01:32:07;15.93;;;6.80;;
41927;SDS011;27616;51.420;6.788;2022-12-18T01:34:35;16.53;;;6.87;;
41927;SDS011;27616;51.420;6.788;2022-12-18T01:37:03;16.30;;;6.07;;
41927;SDS011;27616;51.420;6.788;2022-12-18T01:39:30;15.00;;;6.40;;
41927;SDS011;27616;51.420;6.788;2022-12-18T01:41:57;16.07;;;6.23;;
41927;SDS011;27616;51.420;6.788;2022-12-18T01:44:51;13.73;;;5.55;;
41927;SDS011;27616;51.420;6.788;2022-12-18T01:47:18;14.07;;;6.10;;
41927;SDS011;27616;51.420;6.788;2022-12-18T01:50:09;13.07;;;6.57;;
41927;SDS011;27616;51.420;6.788;2022-12-18T01:52:50;15.63;;;6.63;;
41927;SDS011;27616;51.420;6.788;2022-12-18T01:55:19;15.50;;;6.43;;
41927;SDS011;27616;51.420;6.788;2022-12-18T01:57:47;18.37;;;7.27;;
41927;SDS011;27616;51.420;6.788;2022-12-18T02:00:17;17.43;;;6.93;;
41927;SDS011;27616;51.420;6.788;2022-12-18T02:02:45;10.85;;;5.18;;
41927;SDS011;27616;51.420;6.788;2022-12-18T02:05:12;14.20;;;6.07;;
41927;SDS011;27616;51.420;6.788;2022-12-18T02:08:06;13.27;;;6.30;;
41927;SDS011;27616;51.420;6.788;2022-12-18T02:18:49;15.33;;;6.20;;
41927;SDS011;27616;51.420;6.788;2022-12-18T02:21:40;13.93;;;6.50;;
41927;SDS011;27616;51.420;6.788;2022-12-18T02:26:56;11.00;;;5.28;;
41927;SDS011;27616;51.420;6.788;2022-12-18T02:29:31;16.93;;;6.60;;
41927;SDS011;27616;51.420;6.788;2022-12-18T02:32:02;13.57;;;6.23;;
41927;SDS011;27616;51.420;6.788;2022-12-18T02:34:34;16.23;;;6.83;;
41927;SDS011;27616;51.420;6.788;2022-12-18T02:37:05;18.07;;;6.77;;
41927;SDS011;27616;51.420;6.788;2022-12-18T02:39:38;15.30;;;7.17;;
41927;SDS011;27616;51.420;6.788;2022-12-18T02:44:43;15.53;;;6.37;;
41927;SDS011;27616;51.420;6.788;2022-12-18T02:47:14;12.90;;;6.03;;
41927;SDS011;27616;51.420;6.788;2022-12-18T02:50:07;15.98;;;6.30;;
41927;SDS011;27616;51.420;6.788;2022-12-18T02:58:20;16.37;;;7.17;;
41927;SDS011;27616;51.420;6.788;2022-12-18T03:01:19;17.60;;;6.63;;
41927;SDS011;27616;51.420;6.788;2022-12-18T03:03:59;15.37;;;6.77;;
41927;SDS011;27616;51.420;6.788;2022-12-18T03:06:32;15.07;;;5.90;;
41927;SDS011;27616;51.420;6.788;2022-12-18T03:09:04;17.00;;;7.27;;
41927;SDS011;27616;51.420;6.788;2022-12-18T03:11:34;17.83;;;7.50;;
41927;SDS011;27616;51.420;6.788;2022-12-18T03:14:23;17.67;;;7.10;;
41927;SDS011;27616;51.420;6.788;2022-12-18T03:16:55;15.27;;;7.20;;
41927;SDS011;27616;51.420;6.788;2022-12-18T03:19:26;17.33;;;7.37;;
41927;SDS011;27616;51.420;6.788;2022-12-18T03:21:57;17.27;;;7.57;;
41927;SDS011;27616;51.420;6.788;2022-12-18T03:24:31;17.30;;;6.70;;
41927;SDS011;27616;51.420;6.788;2022-12-18T03:27:02;15.60;;;7.20;;
41927;SDS011;27616;51.420;6.788;2022-12-18T03:30:15;16.60;;;7.07;;
41927;SDS011;27616;51.420;6.788;2022-12-18T03:32:33;12.33;;;5.87;;
41927;SDS011;27616;51.420;6.788;2022-12-18T03:35:06;15.47;;;7.03;;
41927;SDS011;27616;51.420;6.788;2022-12-18T03:37:36;14.05;;;5.82;;
41927;SDS011;27616;51.420;6.788;2022-12-18T03:40:02;13.73;;;5.97;;
41927;SDS011;27616;51.420;6.788;2022-12-18T03:45:23;13.33;;;6.13;;
41927;SDS011;27616;51.420;6.788;2022-12-18T03:50:39;9.50;;;4.97;;
41927;SDS011;27616;51.420;6.788;2022-12-18T03:55:37;10.63;;;5.43;;
41927;SDS011;27616;51.420;6.788;2022-12-18T03:58:06;13.40;;;5.60;;
41927;SDS011;27616;51.420;6.788;2022-12-18T04:00:46;12.57;;;5.43;;
41927;SDS011;27616;51.420;6.788;2022-12-18T04:03:15;12.43;;;5.93;;
41927;SDS011;27616;51.420;6.788;2022-12-18T04:05:46;10.37;;;5.23;;
41927;SDS011;27616;51.420;6.788;2022-12-18T04:08:17;11.67;;;5.40;;
41927;SDS011;27616;51.420;6.788;2022-12-18T04:10:50;12.40;;;5.00;;
41927;SDS011;27616;51.420;6.788;2022-12-18T04:13:24;11.23;;;4.80;;
41927;SDS011;27616;51.420;6.788;2022-12-18T04:15:55;12.80;;;5.83;;
41927;SDS011;27616;51.420;6.788;2022-12-18T04:18:22;10.93;;;5.40;;
41927;SDS011;27616;51.420;6.788;2022-12-18T04:20:48;12.27;;;5.47;;
41927;SDS011;27616;51.420;6.788;2022-12-18T04:23:16;13.87;;;5.97;;
41927;SDS011;27616;51.420;6.788;2022-12-18T04:25:41;14.10;;;5.70;;
41927;SDS011;27616;51.420;6.788;2022-12-18T04:28:11;10.85;;;5.05;;
41927;SDS011;27616;51.420;6.788;2022-12-18T04:30:37;13.63;;;6.60;;
41927;SDS011;27616;51.420;6.788;2022-12-18T04:33:08;14.00;;;6.13;;
41927;SDS011;27616;51.420;6.788;2022-12-18T04:35:34;13.03;;;5.83;;
41927;SDS011;27616;51.420;6.788;2022-12-18T04:38:00;11.43;;;6.10;;
41927;SDS011;27616;51.420;6.788;2022-12-18T04:40:26;12.23;;;5.47;;
41927;SDS011;27616;51.420;6.788;2022-12-18T04:42:52;12.50;;;6.10;;
41927;SDS011;27616;51.420;6.788;2022-12-18T04:45:17;10.40;;;6.03;;
41927;SDS011;27616;51.420;6.788;2022-12-18T04:47:44;12.00;;;6.10;;
41927;SDS011;27616;51.420;6.788;2022-12-18T04:50:09;16.17;;;6.90;;
41927;SDS011;27616;51.420;6.788;2022-12-18T04:52:35;13.90;;;6.23;;
41927;SDS011;27616;51.420;6.788;2022-12-18T04:55:01;15.57;;;6.57;;
41927;SDS011;27616;51.420;6.788;2022-12-18T04:57:26;15.43;;;6.27;;
41927;SDS011;27616;51.420;6.788;2022-12-18T04:59:52;12.57;;;5.80;;
41927;SDS011;27616;51.420;6.788;2022-12-18T05:02:19;14.83;;;6.70;;
41927;SDS011;27616;51.420;6.788;2022-12-18T05:04:44;15.43;;;6.40;;
41927;SDS011;27616;51.420;6.788;2022-12-18T05:07:10;14.53;;;6.47;;
41927;SDS011;27616;51.420;6.788;2022-12-18T05:09:36;12.97;;;6.43;;
41927;SDS011;27616;51.420;6.788;2022-12-18T05:12:01;16.13;;;6.07;;
41927;SDS011;27616;51.420;6.788;2022-12-18T05:14:27;13.70;;;6.20;;
41927;SDS011;27616;51.420;6.788;2022-12-18T05:16:54;14.60;;;6.17;;
41927;SDS011;27616;51.420;6.788;2022-12-18T05:19:20;12.83;;;5.90;;
41927;SDS011;27616;51.420;6.788;2022-12-18T05:21:45;14.33;;;6.73;;
41927;SDS011;27616;51.420;6.788;2022-12-18T05:24:11;15.73;;;7.03;;
41927;SDS011;27616;51.420;6.788;2022-12-18T05:26:37;16.57;;;6.57;;
41927;SDS011;27616;51.420;6.788;2022-12-18T05:29:02;13.67;;;6.57;;
41927;SDS011;27616;51.420;6.788;2022-12-18T05:31:28;13.63;;;6.20;;
41927;SDS011;27616;51.420;6.788;2022-12-18T05:33:54;15.03;;;6.73;;
41927;SDS011;27616;51.420;6.788;2022-12-18T05:36:19;16.03;;;6.90;;
41927;SDS011;27616;51.420;6.788;2022-12-18T05:38:45;15.67;;;6.03;;
41927;SDS011;27616;51.420;6.788;2022-12-18T05:41:11;15.27;;;6.50;;
41927;SDS011;27616;51.420;6.788;2022-12-18T05:43:37;12.23;;;6.17;;
41927;SDS011;27616;51.420;6.788;2022-12-18T05:46:08;16.43;;;7.07;;
41927;SDS011;27616;51.420;6.788;2022-12-18T05:48:38;15.17;;;6.10;;
41927;SDS011;27616;51.420;6.788;2022-12-18T05:51:08;16.17;;;7.27;;
41927;SDS011;27616;51.420;6.788;2022-12-18T05:53:36;14.67;;;6.10;;
41927;SDS011;27616;51.420;6.788;2022-12-18T05:56:03;15.93;;;6.63;;
41927;SDS011;27616;51.420;6.788;2022-12-18T05:58:31;15.77;;;6.57;;
41927;SDS011;27616;51.420;6.788;2022-12-18T06:00:57;16.37;;;6.27;;
41927;SDS011;27616;51.420;6.788;2022-12-18T06:03:30;15.47;;;6.47;;
41927;SDS011;27616;51.420;6.788;2022-12-18T06:05:56;14.90;;;6.10;;
41927;SDS011;27616;51.420;6.788;2022-12-18T06:08:21;14.00;;;6.67;;
41927;SDS011;27616;51.420;6.788;2022-12-18T06:10:50;15.33;;;6.93;;
41927;SDS011;27616;51.420;6.788;2022-12-18T06:13:20;14.83;;;6.67;;
41927;SDS011;27616;51.420;6.788;2022-12-18T06:15:46;15.20;;;7.77;;
41927;SDS011;27616;51.420;6.788;2022-12-18T06:18:12;16.03;;;6.87;;
41927;SDS011;27616;51.420;6.788;2022-12-18T06:20:37;16.00;;;7.10;;
41927;SDS011;27616;51.420;6.788;2022-12-18T06:23:05;14.80;;;6.97;;
41927;SDS011;27616;51.420;6.788;2022-12-18T06:25:31;17.20;;;7.10;;
41927;SDS011;27616;51.420;6.788;2022-12-18T06:27:58;13.33;;;5.80;;
41927;SDS011;27616;51.420;6.788;2022-12-18T06:30:24;15.13;;;6.73;;
41927;SDS011;27616;51.420;6.788;2022-12-18T06:32:50;14.57;;;6.63;;
41927;SDS011;27616;51.420;6.788;2022-12-18T06:35:16;14.77;;;6.17;;
41927;SDS011;27616;51.420;6.788;2022-12-18T06:37:41;16.40;;;7.00;;
41927;SDS011;27616;51.420;6.788;2022-12-18T06:40:08;13.23;;;6.33;;
41927;SDS011;27616;51.420;6.788;2022-12-18T06:42:34;13.57;;;6.30;;
41927;SDS011;27616;51.420;6.788;2022-12-18T06:44:59;14.20;;;5.93;;
41927;SDS011;27616;51.420;6.788;2022-12-18T06:47:25;15.07;;;5.33;;
41927;SDS011;27616;51.420;6.788;2022-12-18T06:49:50;14.83;;;6.20;;
41927;SDS011;27616;51.420;6.788;2022-12-18T06:52:16;16.77;;;6.53;;
41927;SDS011;27616;51.420;6.788;2022-12-18T06:54:42;12.50;;;5.43;;
41927;SDS011;27616;51.420;6.788;2022-12-18T06:57:08;15.13;;;6.30;;
41927;SDS011;27616;51.420;6.788;2022-12-18T06:59:34;16.03;;;5.67;;
41927;SDS011;27616;51.420;6.788;2022-12-18T07:01:59;12.73;;;5.67;;
41927;SDS011;27616;51.420;6.788;2022-12-18T07:04:31;13.27;;;5.60;;
41927;SDS011;27616;51.420;6.788;2022-12-18T07:06:57;14.17;;;5.80;;
41927;SDS011;27616;51.420;6.788;2022-12-18T07:09:23;14.23;;;5.60;;
41927;SDS011;27616;51.420;6.788;2022-12-18T07:11:49;12.80;;;5.33;;
41927;SDS011;27616;51.420;6.788;2022-12-18T07:14:14;14.07;;;5.57;;
41927;SDS011;27616;51.420;6.788;2022-12-18T07:16:40;13.50;;;5.87;;
41927;SDS011;27616;51.420;6.788;2022-12-18T07:19:06;15.00;;;6.10;;
41927;SDS011;27616;51.420;6.788;2022-12-18T07:21:32;15.77;;;6.20;;
41927;SDS011;27616;51.420;6.788;2022-12-18T07:23:57;17.10;;;6.93;;
41927;SDS011;27616;51.420;6.788;2022-12-18T07:26:23;14.53;;;6.23;;
41927;SDS011;27616;51.420;6.788;2022-12-18T07:28:49;14.93;;;5.97;;
41927;SDS011;27616;51.420;6.788;2022-12-18T07:31:18;14.87;;;6.40;;
41927;SDS011;27616;51.420;6.788;2022-12-18T07:33:45;13.60;;;6.05;;
41927;SDS011;27616;51.420;6.788;2022-12-18T07:36:11;15.20;;;5.90;;
41927;SDS011;27616;51.420;6.788;2022-12-18T07:38:37;14.47;;;5.13;;
41927;SDS011;27616;51.420;6.788;2022-12-18T07:41:04;13.20;;;5.00;;
41927;SDS011;27616;51.420;6.788;2022-12-18T07:43:32;13.77;;;5.33;;
41927;SDS011;27616;51.420;6.788;2022-12-18T07:45:59;13.17;;;6.00;;
41927;SDS011;27616;51.420;6.788;2022-12-18T07:48:24;14.70;;;5.67;;
41927;SDS011;27616;51.420;6.788;2022-12-18T07:50:50;13.80;;;5.77;;
41927;SDS011;27616;51.420;6.788;2022-12-18T07:53:16;13.77;;;6.23;;
41927;SDS011;27616;51.420;6.788;2022-12-18T07:55:42;13.97;;;5.53;;
41927;SDS011;27616;51.420;6.788;2022-12-18T07:58:08;17.17;;;6.63;;
41927;SDS011;27616;51.420;6.788;2022-12-18T08:00:34;18.77;;;6.43;;
41927;SDS011;27616;51.420;6.788;2022-12-18T08:03:00;13.37;;;5.47;;
41927;SDS011;27616;51.420;6.788;2022-12-18T08:05:26;15.00;;;6.40;;
41927;SDS011;27616;51.420;6.788;2022-12-18T08:07:52;11.50;;;5.70;;
41927;SDS011;27616;51.420;6.788;2022-12-18T08:10:19;16.73;;;6.33;;
41927;SDS011;27616;51.420;6.788;2022-12-18T08:12:45;13.87;;;6.23;;
41927;SDS011;27616;51.420;6.788;2022-12-18T08:15:10;15.30;;;6.10;;
41927;SDS011;27616;51.420;6.788;2022-12-18T08:17:36;14.37;;;5.90;;
41927;SDS011;27616;51.420;6.788;2022-12-18T08:20:02;13.67;;;5.77;;
41927;SDS011;27616;51.420;6.788;2022-12-18T08:22:29;16.60;;;6.00;;
41927;SDS011;27616;51.420;6.788;2022-12-18T08:24:54;15.83;;;6.67;;
41927;SDS011;27616;51.420;6.788;2022-12-18T08:27:20;14.37;;;5.70;;
41927;SDS011;27616;51.420;6.788;2022-12-18T08:29:46;15.40;;;6.17;;
41927;SDS011;27616;51.420;6.788;2022-12-18T08:32:12;17.07;;;6.87;;
41927;SDS011;27616;51.420;6.788;2022-12-18T08:34:38;21.27;;;7.63;;
41927;SDS011;27616;51.420;6.788;2022-12-18T08:37:03;20.10;;;7.37;;
41927;SDS011;27616;51.420;6.788;2022-12-18T08:39:29;16.90;;;7.67;;
41927;SDS011;27616;51.420;6.788;2022-12-18T08:41:55;20.07;;;8.53;;
41927;SDS011;27616;51.420;6.788;2022-12-18T08:44:39;33.07;;;12.87;;
41927;SDS011;27616;51.420;6.788;2022-12-18T08:47:06;26.73;;;10.97;;
41927;SDS011;27616;51.420;6.788;2022-12-18T08:49:32;21.83;;;10.47;;
41927;SDS011;27616;51.420;6.788;2022-12-18T08:51:58;21.10;;;8.43;;
41927;SDS011;27616;51.420;6.788;2022-12-18T08:54:24;14.73;;;7.20;;
41927;SDS011;27616;51.420;6.788;2022-12-18T08:56:50;17.13;;;7.13;;
41927;SDS011;27616;51.420;6.788;2022-12-18T08:59:16;16.30;;;6.43;;
41927;SDS011;27616;51.420;6.788;2022-12-18T09:01:43;21.37;;;8.57;;
41927;SDS011;27616;51.420;6.788;2022-12-18T09:04:09;16.47;;;7.27;;
41927;SDS011;27616;51.420;6.788;2022-12-18T09:06:35;23.00;;;9.60;;
41927;SDS011;27616;51.420;6.788;2022-12-18T09:09:02;18.90;;;8.63;;
41927;SDS011;27616;51.420;6.788;2022-12-18T09:11:28;18.70;;;8.83;;
41927;SDS011;27616;51.420;6.788;2022-12-18T09:13:54;20.10;;;8.90;;
41927;SDS011;27616;51.420;6.788;2022-12-18T09:16:21;21.90;;;9.80;;
41927;SDS011;27616;51.420;6.788;2022-12-18T09:18:48;14.77;;;6.47;;
41927;SDS011;27616;51.420;6.788;2022-12-18T09:21:15;14.30;;;6.23;;
41927;SDS011;27616;51.420;6.788;2022-12-18T09:23:42;14.30;;;6.20;;
41927;SDS011;27616;51.420;6.788;2022-12-18T09:26:08;12.83;;;5.70;;
41927;SDS011;27616;51.420;6.788;2022-12-18T09:28:34;12.50;;;5.50;;
41927;SDS011;27616;51.420;6.788;2022-12-18T09:31:03;13.47;;;5.83;;
41927;SDS011;27616;51.420;6.788;2022-12-18T09:33:31;12.33;;;5.37;;
41927;SDS011;27616;51.420;6.788;2022-12-18T09:35:57;10.53;;;5.10;;
41927;SDS011;27616;51.420;6.788;2022-12-18T09:38:23;10.63;;;5.13;;
41927;SDS011;27616;51.420;6.788;2022-12-18T09:40:52;11.47;;;5.20;;
41927;SDS011;27616;51.420;6.788;2022-12-18T09:43:26;10.67;;;5.13;;
41927;SDS011;27616;51.420;6.788;2022-12-18T09:46:08;11.07;;;4.70;;
41927;SDS011;27616;51.420;6.788;2022-12-18T09:48:41;10.20;;;4.97;;
41927;SDS011;27616;51.420;6.788;2022-12-18T09:51:15;10.17;;;5.90;;
41927;SDS011;27616;51.420;6.788;2022-12-18T09:53:52;10.02;;;4.80;;
41927;SDS011;27616;51.420;6.788;2022-12-18T09:56:22;10.97;;;4.60;;
41927;SDS011;27616;51.420;6.788;2022-12-18T09:58:57;11.30;;;5.50;;
41927;SDS011;27616;51.420;6.788;2022-12-18T10:01:25;9.83;;;4.37;;
41927;SDS011;27616;51.420;6.788;2022-12-18T10:03:52;8.87;;;4.13;;
41927;SDS011;27616;51.420;6.788;2022-12-18T10:08:58;9.33;;;5.43;;
41927;SDS011;27616;51.420;6.788;2022-12-18T10:15:05;7.63;;;4.10;;
41927;SDS011;27616;51.420;6.788;2022-12-18T10:19:59;9.97;;;4.67;;
41927;SDS011;27616;51.420;6.788;2022-12-18T10:28:12;8.63;;;4.10;;
41927;SDS011;27616;51.420;6.788;2022-12-18T10:30:40;11.13;;;4.60;;
41927;SDS011;27616;51.420;6.788;2022-12-18T10:33:10;11.17;;;5.20;;
41927;SDS011;27616;51.420;6.788;2022-12-18T10:35:41;16.33;;;7.90;;
41927;SDS011;27616;51.420;6.788;2022-12-18T10:40:55;12.57;;;6.30;;
41927;SDS011;27616;51.420;6.788;2022-12-18T10:43:39;11.90;;;5.47;;
41927;SDS011;27616;51.420;6.788;2022-12-18T10:51:25;8.93;;;4.90;;
41927;SDS011;27616;51.420;6.788;2022-12-18T10:54:14;15.17;;;7.17;;
41927;SDS011;27616;51.420;6.788;2022-12-18T10:56:47;10.53;;;4.67;;
41927;SDS011;27616;51.420;6.788;2022-12-18T10:59:15;7.37;;;3.17;;
41927;SDS011;27616;51.420;6.788;2022-12-18T11:01:55;9.85;;;5.32;;
41927;SDS011;27616;51.420;6.788;2022-12-18T11:06:53;28.17;;;15.30;;
41927;SDS011;27616;51.420;6.788;2022-12-18T11:09:23;22.00;;;10.87;;
41927;SDS011;27616;51.420;6.788;2022-12-18T11:11:53;12.45;;;6.20;;
41927;SDS011;27616;51.420;6.788;2022-12-18T11:14:34;10.97;;;5.00;;
41927;SDS011;27616;51.420;6.788;2022-12-18T11:17:18;9.57;;;4.87;;
41927;SDS011;27616;51.420;6.788;2022-12-18T11:19:53;9.77;;;5.30;;
41927;SDS011;27616;51.420;6.788;2022-12-18T11:22:33;11.73;;;5.13;;
41927;SDS011;27616;51.420;6.788;2022-12-18T11:25:07;10.47;;;5.10;;
41927;SDS011;27616;51.420;6.788;2022-12-18T11:28:03;10.47;;;4.40;;
41927;SDS011;27616;51.420;6.788;2022-12-18T11:30:47;11.03;;;4.57;;
41927;SDS011;27616;51.420;6.788;2022-12-18T11:33:15;10.83;;;4.77;;
41927;SDS011;27616;51.420;6.788;2022-12-18T11:35:52;10.87;;;4.60;;
41927;SDS011;27616;51.420;6.788;2022-12-18T11:40:55;8.23;;;4.43;;
41927;SDS011;27616;51.420;6.788;2022-12-18T11:43:28;13.67;;;5.60;;
41927;SDS011;27616;51.420;6.788;2022-12-18T11:46:07;10.33;;;4.80;;
41927;SDS011;27616;51.420;6.788;2022-12-18T11:48:43;11.27;;;5.27;;
41927;SDS011;27616;51.420;6.788;2022-12-18T11:51:19;13.67;;;6.20;;
41927;SDS011;27616;51.420;6.788;2022-12-18T11:53:53;20.47;;;11.97;;
41927;SDS011;27616;51.420;6.788;2022-12-18T12:07:12;13.40;;;5.33;;
41927;SDS011;27616;51.420;6.788;2022-12-18T12:15:29;11.40;;;5.10;;
41927;SDS011;27616;51.420;6.788;2022-12-18T12:23:41;13.30;;;5.80;;
41927;SDS011;27616;51.420;6.788;2022-12-18T12:34:53;14.73;;;6.70;;
41927;SDS011;27616;51.420;6.788;2022-12-18T12:39:55;11.63;;;5.63;;
41927;SDS011;27616;51.420;6.788;2022-12-18T12:42:35;11.80;;;5.13;;
41927;SDS011;27616;51.420;6.788;2022-12-18T12:45:40;13.40;;;6.40;;
41927;SDS011;27616;51.420;6.788;2022-12-18T12:48:18;11.03;;;5.43;;
41927;SDS011;27616;51.420;6.788;2022-12-18T12:51:30;9.43;;;4.40;;
41927;SDS011;27616;51.420;6.788;2022-12-18T12:53:57;14.13;;;6.80;;
41927;SDS011;27616;51.420;6.788;2022-12-18T12:56:24;13.43;;;5.57;;
41927;SDS011;27616;51.420;6.788;2022-12-18T12:59:02;12.67;;;5.93;;
41927;SDS011;27616;51.420;6.788;2022-12-18T13:04:40;16.50;;;6.47;;
41927;SDS011;27616;51.420;6.788;2022-12-18T13:07:18;11.13;;;4.97;;
41927;SDS011;27616;51.420;6.788;2022-12-18T13:10:35;15.03;;;6.10;;
41927;SDS011;27616;51.420;6.788;2022-12-18T13:13:09;13.90;;;6.40;;
41927;SDS011;27616;51.420;6.788;2022-12-18T13:15:47;15.30;;;6.33;;
41927;SDS011;27616;51.420;6.788;2022-12-18T13:18:32;8.37;;;4.10;;
41927;SDS011;27616;51.420;6.788;2022-12-18T13:25:51;13.57;;;6.23;;
41927;SDS011;27616;51.420;6.788;2022-12-18T13:31:13;10.67;;;4.77;;
41927;SDS011;27616;51.420;6.788;2022-12-18T13:33:46;15.23;;;4.53;;
41927;SDS011;27616;51.420;6.788;2022-12-18T13:36:16;13.17;;;6.00;;
41927;SDS011;27616;51.420;6.788;2022-12-18T13:39:20;11.07;;;5.23;;
41927;SDS011;27616;51.420;6.788;2022-12-18T13:42:37;13.77;;;6.77;;
41927;SDS011;27616;51.420;6.788;2022-12-18T13:44:55;12.93;;;5.13;;
41927;SDS011;27616;51.420;6.788;2022-12-18T13:47:36;20.50;;;9.43;;
41927;SDS011;27616;51.420;6.788;2022-12-18T13:50:11;39.77;;;20.30;;
41927;SDS011;27616;51.420;6.788;2022-12-18T13:52:51;29.20;;;13.77;;
41927;SDS011;27616;51.420;6.788;2022-12-18T13:55:18;21.10;;;8.80;;
41927;SDS011;27616;51.420;6.788;2022-12-18T13:57:45;17.33;;;6.77;;
41927;SDS011;27616;51.420;6.788;2022-12-18T14:00:28;15.07;;;6.37;;
41927;SDS011;27616;51.420;6.788;2022-12-18T14:02:55;15.33;;;7.13;;
41927;SDS011;27616;51.420;6.788;2022-12-18T14:05:26;14.70;;;7.20;;
41927;SDS011;27616;51.420;6.788;2022-12-18T14:07:53;12.07;;;5.03;;
41927;SDS011;27616;51.420;6.788;2022-12-18T14:10:20;13.37;;;6.63;;
41927;SDS011;27616;51.420;6.788;2022-12-18T14:12:48;16.20;;;7.50;;
41927;SDS011;27616;51.420;6.788;2022-12-18T14:20:46;14.47;;;6.10;;
41927;SDS011;27616;51.420;6.788;2022-12-18T14:26:02;19.63;;;8.70;;
41927;SDS011;27616;51.420;6.788;2022-12-18T14:28:48;19.43;;;9.23;;
41927;SDS011;27616;51.420;6.788;2022-12-18T14:31:32;38.67;;;16.60;;
41927;SDS011;27616;51.420;6.788;2022-12-18T14:33:57;20.77;;;9.20;;
41927;SDS011;27616;51.420;6.788;2022-12-18T14:36:24;56.30;;;25.10;;
41927;SDS011;27616;51.420;6.788;2022-12-18T14:39:01;32.08;;;16.58;;
41927;SDS011;27616;51.420;6.788;2022-12-18T14:41:26;20.07;;;9.53;;
41927;SDS011;27616;51.420;6.788;2022-12-18T14:43:54;30.73;;;11.17;;
41927;SDS011;27616;51.420;6.788;2022-12-18T14:48:58;14.43;;;6.60;;
41927;SDS011;27616;51.420;6.788;2022-12-18T14:51:27;19.02;;;8.40;;
41927;SDS011;27616;51.420;6.788;2022-12-18T14:54:05;20.70;;;9.20;;
41927;SDS011;27616;51.420;6.788;2022-12-18T14:56:43;17.13;;;6.30;;
41927;SDS011;27616;51.420;6.788;2022-12-18T15:01:49;22.20;;;9.57;;
41927;SDS011;27616;51.420;6.788;2022-12-18T15:09:35;22.60;;;9.37;;
41927;SDS011;27616;51.420;6.788;2022-12-18T15:12:01;18.20;;;8.80;;
41927;SDS011;27616;51.420;6.788;2022-12-18T15:14:32;20.60;;;9.03;;
41927;SDS011;27616;51.420;6.788;2022-12-18T15:17:03;17.07;;;7.57;;
41927;SDS011;27616;51.420;6.788;2022-12-18T15:19:39;17.43;;;6.53;;
41927;SDS011;27616;51.420;6.788;2022-12-18T15:22:16;14.10;;;6.10;;
41927;SDS011;27616;51.420;6.788;2022-12-18T15:24:53;20.33;;;10.20;;
41927;SDS011;27616;51.420;6.788;2022-12-18T15:32:27;28.67;;;14.10;;
41927;SDS011;27616;51.420;6.788;2022-12-18T15:35:02;23.57;;;11.10;;
41927;SDS011;27616;51.420;6.788;2022-12-18T15:37:39;23.60;;;11.07;;
41927;SDS011;27616;51.420;6.788;2022-12-18T15:40:06;24.13;;;10.03;;
41927;SDS011;27616;51.420;6.788;2022-12-18T15:42:33;20.07;;;9.30;;
41927;SDS011;27616;51.420;6.788;2022-12-18T15:45:18;22.93;;;10.53;;
41927;SDS011;27616;51.420;6.788;2022-12-18T15:47:43;23.07;;;10.90;;
41927;SDS011;27616;51.420;6.788;2022-12-18T15:50:09;27.07;;;11.80;;
41927;SDS011;27616;51.420;6.788;2022-12-18T15:52:45;24.93;;;11.17;;
41927;SDS011;27616;51.420;6.788;2022-12-18T15:55:15;20.07;;;8.70;;
41927;SDS011;27616;51.420;6.788;2022-12-18T16:00:28;23.37;;;11.03;;
41927;SDS011;27616;51.420;6.788;2022-12-18T16:02:54;22.87;;;10.63;;
41927;SDS011;27616;51.420;6.788;2022-12-18T16:05:20;24.03;;;10.87;;
41927;SDS011;27616;51.420;6.788;2022-12-18T16:07:48;23.60;;;10.60;;
41927;SDS011;27616;51.420;6.788;2022-12-18T16:10:14;21.47;;;9.73;;
41927;SDS011;27616;51.420;6.788;2022-12-18T16:12:40;19.33;;;8.43;;
41927;SDS011;27616;51.420;6.788;2022-12-18T16:15:06;26.53;;;12.17;;
41927;SDS011;27616;51.420;6.788;2022-12-18T16:17:33;19.23;;;8.57;;
41927;SDS011;27616;51.420;6.788;2022-12-18T16:19:59;33.13;;;9.80;;
41927;SDS011;27616;51.420;6.788;2022-12-18T16:22:25;24.70;;;11.60;;
41927;SDS011;27616;51.420;6.788;2022-12-18T16:24:53;16.40;;;7.17;;
41927;SDS011;27616;51.420;6.788;2022-12-18T16:27:20;24.30;;;11.53;;
41927;SDS011;27616;51.420;6.788;2022-12-18T16:29:47;21.10;;;9.07;;
41927;SDS011;27616;51.420;6.788;2022-12-18T16:32:17;24.40;;;11.23;;
41927;SDS011;27616;51.420;6.788;2022-12-18T16:34:45;26.93;;;12.53;;
41927;SDS011;27616;51.420;6.788;2022-12-18T16:37:11;29.67;;;10.63;;
41927;SDS011;27616;51.420;6.788;2022-12-18T16:39:38;23.43;;;8.23;;
41927;SDS011;27616;51.420;6.788;2022-12-18T16:44:43;28.07;;;12.33;;
41927;SDS011;27616;51.420;6.788;2022-12-18T16:47:11;26.20;;;12.00;;
41927;SDS011;27616;51.420;6.788;2022-12-18T16:49:37;25.80;;;11.37;;
41927;SDS011;27616;51.420;6.788;2022-12-18T16:52:03;27.40;;;12.13;;
41927;SDS011;27616;51.420;6.788;2022-12-18T16:54:30;21.80;;;9.70;;
41927;SDS011;27616;51.420;6.788;2022-12-18T16:56:57;27.00;;;11.17;;
41927;SDS011;27616;51.420;6.788;2022-12-18T16:59:24;43.97;;;13.80;;